createdAt,value
2022-12-17T00:00:17.515Z,28.50
2022-12-17T00:05:33.316Z,28.93
2022-12-17T00:10:50.299Z,22.00
2022-12-17T00:16:10.256Z,20.53
2022-12-17T00:21:27.758Z,25.63
2022-12-17T00:26:44.846Z,17.13
2022-12-17T00:32:00.261Z,18.50
2022-12-17T00:37:15.702Z,22.90
2022-12-17T00:42:35.218Z,20.37
2022-12-17T00:48:18.687Z,21.43
2022-12-17T00:53:34.515Z,16.90
2022-12-17T00:58:51.984Z,17.70
2022-12-17T01:04:07.683Z,18.30
2022-12-17T01:09:19.748Z,19.90
2022-12-17T01:14:38.159Z,25.17
2022-12-17T01:19:53.568Z,22.43
2022-12-17T01:25:11.934Z,22.23
2022-12-17T01:30:29.497Z,24.00
2022-12-17T01:35:45.275Z,23.60
2022-12-17T01:41:01.053Z,23.23
2022-12-17T01:53:18.192Z,23.03
2022-12-17T01:58:33.547Z,22.67
2022-12-17T02:03:49.031Z,20.07
2022-12-17T02:09:14.798Z,23.07
2022-12-17T02:14:37.779Z,19.30
2022-12-17T02:20:02.783Z,22.83
2022-12-17T02:25:30.377Z,19.67
2022-12-17T02:30:46.812Z,23.57
2022-12-17T02:36:06.002Z,21.53
2022-12-17T02:41:24.293Z,21.80
2022-12-17T02:46:42.907Z,20.87
2022-12-17T02:51:58.935Z,23.53
2022-12-17T02:57:14.646Z,21.43
2022-12-17T03:02:31.824Z,19.60
2022-12-17T03:07:47.829Z,21.53
2022-12-17T03:13:03.214Z,20.03
2022-12-17T03:18:20.327Z,21.40
2022-12-17T03:23:36.168Z,21.43
2022-12-17T03:28:51.775Z,20.90
2022-12-17T03:34:08.579Z,21.40
2022-12-17T03:39:23.973Z,21.10
2022-12-17T03:44:39.823Z,16.43
2022-12-17T03:49:56.596Z,21.50
2022-12-17T03:55:12.022Z,21.10
2022-12-17T04:00:29.026Z,19.73
2022-12-17T04:05:45.772Z,14.90
2022-12-17T04:11:01.264Z,17.00
2022-12-17T04:16:16.949Z,20.20
2022-12-17T04:28:22.600Z,13.67
2022-12-17T04:33:38.612Z,20.27
2022-12-17T04:38:54.211Z,13.50
2022-12-17T04:44:10.993Z,20.70
2022-12-17T04:49:26.855Z,19.63
2022-12-17T04:54:42.364Z,19.47
2022-12-17T04:59:59.168Z,18.30
2022-12-17T05:05:14.542Z,18.97
2022-12-17T05:10:29.969Z,18.90
2022-12-17T05:15:52.785Z,17.73
2022-12-17T05:21:20.671Z,19.17
2022-12-17T05:26:38.760Z,19.90
2022-12-17T05:31:55.535Z,19.10
2022-12-17T05:37:11.097Z,18.37
2022-12-17T05:42:26.820Z,18.07
2022-12-17T05:47:43.766Z,17.13
2022-12-17T05:52:59.303Z,17.20
2022-12-17T05:58:21.306Z,13.30
2022-12-17T06:03:38.835Z,19.57
2022-12-17T06:08:54.525Z,18.70
2022-12-17T06:14:09.942Z,17.77
2022-12-17T06:19:27.151Z,14.67
2022-12-17T06:24:45.930Z,17.20
2022-12-17T06:30:01.895Z,16.70
2022-12-17T06:35:24.271Z,17.23
2022-12-17T06:40:40.064Z,19.60
2022-12-17T06:45:55.585Z,17.00
2022-12-17T06:51:14.025Z,18.47
2022-12-17T06:56:29.613Z,17.23
2022-12-17T07:01:45.649Z,17.70
2022-12-17T07:07:02.709Z,18.70
2022-12-17T07:12:18.388Z,17.20
2022-12-17T07:17:33.940Z,16.53
2022-12-17T07:22:51.169Z,16.17
2022-12-17T07:28:11.904Z,13.40
2022-12-17T07:33:28.977Z,16.47
2022-12-17T07:45:35.147Z,15.80
2022-12-17T07:50:50.558Z,17.37
2022-12-17T07:56:05.870Z,18.83
2022-12-17T08:01:23.257Z,11.73
2022-12-17T08:06:38.854Z,17.27
2022-12-17T08:11:54.232Z,18.37
2022-12-17T08:17:11.345Z,19.10
2022-12-17T08:22:32.195Z,11.33
2022-12-17T08:28:48.559Z,17.53
2022-12-17T08:33:54.198Z,14.13
2022-12-17T08:39:09.931Z,13.23
2022-12-17T08:44:25.257Z,15.20
2022-12-17T08:49:41.941Z,17.40
2022-12-17T08:54:57.159Z,12.80
2022-12-17T09:00:12.904Z,13.40
2022-12-17T09:05:29.638Z,11.73
2022-12-17T09:10:45.382Z,11.57
2022-12-17T09:16:00.774Z,18.13
2022-12-17T09:21:17.895Z,13.80
2022-12-17T09:26:33.448Z,11.07
2022-12-17T09:31:49.389Z,14.63
2022-12-17T09:37:06.608Z,12.23
2022-12-17T09:42:31.568Z,12.00
2022-12-17T09:54:48.213Z,17.10
2022-12-17T10:00:03.727Z,14.13
2022-12-17T10:06:24.589Z,11.40
2022-12-17T10:11:44.659Z,10.80
2022-12-17T10:17:09.884Z,10.40
2022-12-17T10:22:29.212Z,17.57
2022-12-17T10:27:46.125Z,10.97
2022-12-17T10:33:01.650Z,10.20
2022-12-17T10:38:19.410Z,10.93
2022-12-17T10:50:34.934Z,17.17
2022-12-17T10:56:06.362Z,12.80
2022-12-17T11:01:23.993Z,11.20
2022-12-17T11:13:07.925Z,9.80
2022-12-17T11:18:25.217Z,14.47
2022-12-17T11:23:41.075Z,16.00
2022-12-17T11:28:58.189Z,15.73
2022-12-17T11:34:21.459Z,9.30
2022-12-17T11:40:27.344Z,16.93
2022-12-17T11:45:50.263Z,17.13
2022-12-17T11:51:09.273Z,17.70
2022-12-17T11:56:34.910Z,14.40
2022-12-17T12:01:58.617Z,16.13
2022-12-17T12:08:05.700Z,11.30
2022-12-17T12:13:32.693Z,8.70
2022-12-17T12:19:12.220Z,9.70
2022-12-17T12:24:41.053Z,9.37
2022-12-17T12:30:03.900Z,8.67
2022-12-17T12:42:01.156Z,7.80
2022-12-17T12:47:21.067Z,9.93
2022-12-17T12:52:42.908Z,9.30
2022-12-17T12:58:03.063Z,8.37
2022-12-17T13:03:30.458Z,8.50
2022-12-17T13:08:30.150Z,7.23
2022-12-17T13:13:37.727Z,8.67
2022-12-17T13:19:37.808Z,6.60
2022-12-17T13:24:36.051Z,7.77
2022-12-17T13:29:38.351Z,8.13
2022-12-17T13:41:31.077Z,8.63
2022-12-17T13:46:36.643Z,8.30
2022-12-17T13:51:36.159Z,6.77
2022-12-17T13:56:36.054Z,6.90
2022-12-17T14:01:45.570Z,10.03
2022-12-17T14:06:43.820Z,7.30
2022-12-17T14:11:59.182Z,7.97
2022-12-17T14:16:59.353Z,8.00
2022-12-17T14:21:58.240Z,8.50
2022-12-17T14:26:58.662Z,10.20
2022-12-17T14:38:37.494Z,9.00
2022-12-17T14:43:36.787Z,9.57
2022-12-17T14:48:48.785Z,11.97
2022-12-17T14:55:01.314Z,8.50
2022-12-17T15:00:00.939Z,12.63
2022-12-17T15:05:02.700Z,13.43
2022-12-17T15:10:26.072Z,9.60
2022-12-17T15:15:25.508Z,12.63
2022-12-17T15:21:14.052Z,13.17
2022-12-17T15:26:13.919Z,11.47
2022-12-17T15:31:18.670Z,15.10
2022-12-17T15:36:19.960Z,12.57
2022-12-17T15:41:35.581Z,14.30
2022-12-17T15:46:35.187Z,15.13
2022-12-17T15:51:33.287Z,11.27
2022-12-17T15:56:31.353Z,9.10
2022-12-17T16:02:31.088Z,9.60
2022-12-17T16:07:30.697Z,13.90
2022-12-17T16:12:29.115Z,13.60
2022-12-17T16:17:55.823Z,9.63
2022-12-17T16:23:20.938Z,12.70
2022-12-17T16:28:19.061Z,9.50
2022-12-17T16:33:17.261Z,9.73
2022-12-17T16:38:15.372Z,10.40
2022-12-17T16:43:14.851Z,16.90
2022-12-17T16:48:53.765Z,14.93
2022-12-17T16:53:51.903Z,15.00
2022-12-17T16:58:52.554Z,14.30
2022-12-17T17:03:51.006Z,20.07
2022-12-17T17:09:07.747Z,18.03
2022-12-17T17:14:08.240Z,22.70
2022-12-17T17:19:24.196Z,16.37
2022-12-17T17:24:47.338Z,33.80
2022-12-17T17:29:46.871Z,38.47
2022-12-17T17:35:35.371Z,17.13
2022-12-17T17:40:58.648Z,15.40
2022-12-17T17:46:05.772Z,13.43
2022-12-17T17:52:08.006Z,19.47
2022-12-17T17:56:53.250Z,14.50
2022-12-17T18:01:52.949Z,13.97
2022-12-17T18:07:53.043Z,13.23
2022-12-17T18:13:08.530Z,15.67
2022-12-17T18:18:14.170Z,14.80
2022-12-17T18:23:12.753Z,10.83
2022-12-17T18:28:10.883Z,10.23
2022-12-17T18:33:10.460Z,12.93
2022-12-17T18:38:08.693Z,11.30
2022-12-17T18:43:25.004Z,10.13
2022-12-17T18:48:24.577Z,9.87
2022-12-17T18:53:22.688Z,13.30
2022-12-17T18:58:20.900Z,11.23
2022-12-17T19:03:19.079Z,12.93
2022-12-17T19:08:18.834Z,17.57
2022-12-17T19:13:17.025Z,10.53
2022-12-17T19:18:15.215Z,8.43
2022-12-17T19:23:13.414Z,16.33
2022-12-17T19:28:12.917Z,12.53
2022-12-17T19:33:11.128Z,9.07
2022-12-17T19:38:09.250Z,12.07
2022-12-17T19:43:07.435Z,10.97
2022-12-17T19:48:07.372Z,11.07
2022-12-17T19:53:05.884Z,8.70
2022-12-17T19:58:04.013Z,9.73
2022-12-17T20:03:02.282Z,13.40
2022-12-17T20:08:01.926Z,9.60
2022-12-17T20:13:00.149Z,9.37
2022-12-17T20:17:58.438Z,12.03
2022-12-17T20:22:56.643Z,7.60
2022-12-17T20:27:56.132Z,10.03
2022-12-17T20:32:54.844Z,13.80
2022-12-17T20:37:52.981Z,15.57
2022-12-17T20:42:52.717Z,12.17
2022-12-17T20:47:53.188Z,11.80
2022-12-17T20:52:51.357Z,13.30
2022-12-17T20:57:49.509Z,13.27
2022-12-17T21:02:47.825Z,14.10
2022-12-17T21:07:47.430Z,8.20
2022-12-17T21:13:03.105Z,12.87
2022-12-17T21:18:01.259Z,9.70
2022-12-17T21:23:00.850Z,10.83
2022-12-17T21:27:59.021Z,13.57
2022-12-17T21:32:57.177Z,9.67
2022-12-17T21:37:55.370Z,11.63
2022-12-17T21:43:03.680Z,10.60
2022-12-17T21:48:01.769Z,13.05
2022-12-17T21:53:01.413Z,7.63
2022-12-17T21:58:00.816Z,9.63
2022-12-17T22:09:59.962Z,10.23
2022-12-17T22:15:08.294Z,12.10
2022-12-17T22:27:00.073Z,11.70
2022-12-17T22:32:28.376Z,8.03
2022-12-17T22:39:42.928Z,9.70
2022-12-17T22:44:38.492Z,10.17
2022-12-17T22:48:22.152Z,10.43
2022-12-17T22:53:21.975Z,10.43
2022-12-17T22:58:20.366Z,10.60
2022-12-17T23:03:18.639Z,9.70
2022-12-17T23:08:18.257Z,8.10
2022-12-17T23:13:16.386Z,11.80
2022-12-17T23:18:14.517Z,10.40
2022-12-17T23:23:12.650Z,6.80
2022-12-17T23:28:12.216Z,10.07
2022-12-17T23:33:42.210Z,8.07
2022-12-17T23:38:41.471Z,7.70
2022-12-17T23:43:41.317Z,8.23
2022-12-17T23:48:45.295Z,8.90
2022-12-17T23:53:44.786Z,7.10
2022-12-17T23:58:45.573Z,10.33
